createdAt,value
2018-02-10T08:59:01.008Z,101437
2018-02-10T09:01:30.067Z,101432
2018-02-10T09:04:05.153Z,101435
2018-02-10T09:06:38.934Z,101434
2018-02-10T09:12:24.026Z,101442
2018-02-10T09:15:09.540Z,101441
2018-02-10T09:17:42.568Z,101437
2018-02-10T09:20:30.502Z,101431
2018-02-10T09:22:58.826Z,101423
2018-02-10T10:53:35.619Z,101424
2018-02-10T10:56:04.889Z,101423
2018-02-10T10:58:33.626Z,101412
2018-02-10T11:01:03.355Z,101405
2018-02-10T11:03:31.890Z,101401
2018-02-10T11:06:00.175Z,101414
2018-02-10T11:08:28.626Z,101410
2018-02-10T11:10:58.035Z,101410
2018-02-10T11:13:28.888Z,101418
2018-02-10T11:16:01.910Z,101409
2018-02-10T11:18:32.227Z,101411
2018-02-10T11:21:02.909Z,101400
2018-02-10T11:23:31.643Z,101399
2018-02-10T11:26:04.064Z,101403
2018-02-10T11:28:33.409Z,101396
2018-02-10T11:31:01.907Z,101406
2018-02-10T11:33:36.548Z,101399
2018-02-10T11:36:05.649Z,101394
2018-02-10T11:38:34.299Z,101389
2018-02-10T11:41:02.699Z,101396
2018-02-10T11:43:31.134Z,101389
2018-02-10T11:46:00.426Z,101389
2018-02-10T11:48:28.732Z,101382
2018-02-10T11:50:56.987Z,101381
2018-02-10T11:53:25.270Z,101385
2018-02-10T11:55:53.938Z,101385
2018-02-10T11:58:23.926Z,101392
2018-02-10T12:00:56.250Z,101389
2018-02-10T12:03:26.717Z,101389
2018-02-10T12:05:55.125Z,101377
2018-02-10T12:11:26.660Z,101382
2018-02-10T12:13:56.098Z,101368
2018-02-10T12:16:26.987Z,101364
2018-02-10T12:18:55.682Z,101362
2018-02-10T12:21:40.662Z,101348
2018-02-10T13:15:08.071Z,101302
2018-02-10T13:26:54.879Z,101302
2018-02-10T13:45:18.809Z,101287
2018-02-10T13:47:47.093Z,101275
2018-02-10T13:50:15.296Z,101278
2018-02-10T13:52:43.621Z,101274
2018-02-10T13:55:11.859Z,101259
2018-02-10T13:57:40.369Z,101258
2018-02-10T14:00:10.464Z,101252
2018-02-10T14:02:41.721Z,101246
2018-02-10T14:05:10.897Z,101247
2018-02-10T14:07:40.202Z,101253
2018-02-10T14:10:08.502Z,101250
2018-02-10T14:12:37.114Z,101243
2018-02-10T14:15:06.919Z,101243
2018-02-10T14:17:35.298Z,101242
2018-02-10T14:20:04.475Z,101244
2018-02-10T14:22:33.068Z,101239
2018-02-10T14:25:01.322Z,101236
2018-02-10T14:27:30.360Z,101243
2018-02-10T14:30:04.111Z,101242
2018-02-10T14:32:33.264Z,101238
2018-02-10T14:35:08.773Z,101235
2018-02-10T14:37:37.280Z,101229
2018-02-10T14:40:05.584Z,101237
2018-02-10T14:42:33.794Z,101233
2018-02-10T14:45:02.058Z,101233
2018-02-10T14:47:31.159Z,101228
2018-02-10T14:49:59.529Z,101233
2018-02-10T14:52:32.890Z,101225
2018-02-10T14:55:02.121Z,101222
2018-02-10T14:57:30.655Z,101217
2018-02-10T15:00:06.827Z,101227
2018-02-10T15:02:37.597Z,101223
2018-02-10T15:05:05.874Z,101219
2018-02-10T15:07:35.012Z,101224
2018-02-10T15:10:03.445Z,101222
2018-02-10T15:12:31.913Z,101218
2018-02-10T15:15:00.149Z,101223
2018-02-10T15:17:29.970Z,101217
2018-02-10T15:19:59.075Z,101209
2018-02-10T15:22:29.793Z,101209
2018-02-10T15:28:17.210Z,101210
2018-02-10T15:31:03.028Z,101200
2018-02-10T15:33:50.335Z,101198
2018-02-10T15:36:18.781Z,101201
2018-02-10T15:38:56.214Z,101195
2018-02-10T15:41:29.486Z,101196
2018-02-10T15:44:01.004Z,101187
2018-02-10T15:49:27.370Z,101175
2018-02-10T15:51:57.514Z,101187
2018-02-10T15:54:27.194Z,101193
2018-02-10T15:56:56.486Z,101203
2018-02-10T15:59:26.470Z,101204
2018-02-10T16:01:54.775Z,101212
2018-02-10T16:04:27.529Z,101207
2018-02-10T16:21:14.202Z,101200
2018-02-10T16:33:06.379Z,101176
2018-02-10T16:35:34.999Z,101171
2018-02-10T16:38:03.962Z,101164
2018-02-10T16:40:32.267Z,101165
2018-02-10T16:43:00.481Z,101168
2018-02-10T16:45:28.775Z,101157
2018-02-10T16:47:57.008Z,101161
2018-02-10T16:50:25.265Z,101158
2018-02-10T16:52:53.823Z,101162
2018-02-10T16:55:22.021Z,101156
2018-02-10T16:57:50.351Z,101158
2018-02-10T17:00:18.610Z,101166
2018-02-10T17:02:46.924Z,101165
2018-02-10T17:05:15.183Z,101162
2018-02-10T17:07:43.438Z,101160
2018-02-10T17:10:12.679Z,101159
2018-02-10T17:12:40.915Z,101155
2018-02-10T17:15:10.131Z,101150
2018-02-10T17:17:38.766Z,101155
2018-02-10T17:20:08.233Z,101143
2018-02-10T17:22:36.478Z,101140
2018-02-10T17:25:04.723Z,101139
2018-02-10T17:27:33.083Z,101142
2018-02-10T17:30:01.373Z,101143
2018-02-10T17:32:30.385Z,101134
2018-02-10T17:34:58.798Z,101141
2018-02-10T17:37:27.056Z,101133
2018-02-10T17:39:55.451Z,101137
2018-02-10T17:42:23.979Z,101136
2018-02-10T17:44:52.249Z,101133
2018-02-10T17:47:20.998Z,101139
2018-02-10T17:49:50.089Z,101136
2018-02-10T17:52:19.701Z,101136
2018-02-10T17:54:48.680Z,101136
2018-02-10T17:57:16.882Z,101137
2018-02-10T17:59:45.108Z,101142
2018-02-10T18:02:13.359Z,101137
2018-02-10T18:04:41.598Z,101130
2018-02-10T18:07:09.881Z,101133
2018-02-10T18:09:38.109Z,101132
2018-02-10T18:12:06.899Z,101128
2018-02-10T18:14:35.486Z,101136
2018-02-10T18:17:04.031Z,101132
2018-02-10T18:19:32.249Z,101130
2018-02-10T18:22:00.522Z,101130
2018-02-10T18:24:28.710Z,101130
2018-02-10T18:26:57.847Z,101133
2018-02-10T18:32:00.456Z,101116
2018-02-10T18:34:29.555Z,101113
2018-02-10T18:36:58.534Z,101100
2018-02-10T18:39:27.498Z,101101
2018-02-10T18:41:55.739Z,101095
2018-02-10T18:44:23.920Z,101091
2018-02-10T18:46:52.864Z,101089
2018-02-10T18:49:21.671Z,101085
2018-02-10T18:51:49.908Z,101086
2018-02-10T18:54:18.097Z,101078
2018-02-10T18:56:46.625Z,101085
2018-02-10T18:59:14.977Z,101082
2018-02-10T19:01:43.938Z,101084
2018-02-10T19:04:12.535Z,101084
2018-02-10T19:06:40.868Z,101084
2018-02-10T19:09:09.062Z,101091
2018-02-10T19:11:37.281Z,101089
2018-02-10T19:14:05.500Z,101087
2018-02-10T19:16:33.656Z,101081
2018-02-10T19:19:02.083Z,101077
2018-02-10T19:21:30.330Z,101084
2018-02-10T19:23:58.543Z,101078
2018-02-10T19:26:28.110Z,101071
2018-02-10T19:28:57.151Z,101067
2018-02-10T19:34:39.248Z,101064
2018-02-10T19:37:14.706Z,101053
2018-02-10T19:39:42.904Z,101054
2018-02-10T19:42:11.879Z,101050
2018-02-10T19:44:40.408Z,101041
2018-02-10T19:47:08.582Z,101031
2018-02-10T19:49:36.837Z,101034
2018-02-10T19:52:05.043Z,101034
2018-02-10T19:54:33.316Z,101023
2018-02-10T19:57:01.456Z,101029
2018-02-10T19:59:30.122Z,101017
2018-02-10T20:01:59.056Z,101018
2018-02-10T20:04:27.245Z,101016
2018-02-10T20:06:55.860Z,101014
2018-02-10T20:09:24.032Z,101010
2018-02-10T20:11:52.217Z,101013
2018-02-10T20:14:20.849Z,101001
2018-02-10T20:16:48.973Z,101002
2018-02-10T20:19:17.218Z,101017
2018-02-10T20:21:45.472Z,101006
2018-02-10T20:24:13.649Z,100995
2018-02-10T20:26:49.003Z,101001
2018-02-10T20:29:20.296Z,101003
2018-02-10T20:31:49.225Z,101002
2018-02-10T20:34:39.938Z,100985
2018-02-10T20:37:20.518Z,100986
2018-02-10T20:39:52.654Z,100985
2018-02-10T20:50:15.944Z,100976
2018-02-10T20:52:44.137Z,100975
2018-02-10T20:55:12.383Z,100977
2018-02-10T20:57:40.946Z,100967
2018-02-10T21:00:09.970Z,100956
2018-02-10T21:02:38.831Z,100959
2018-02-10T21:05:08.039Z,100961
2018-02-10T21:07:36.241Z,100956
2018-02-10T21:10:04.422Z,100957
2018-02-10T21:12:32.657Z,100943
2018-02-10T21:15:00.952Z,100940
2018-02-10T21:17:29.175Z,100945
2018-02-10T21:19:57.403Z,100936
2018-02-10T21:22:25.579Z,100931
2018-02-10T21:24:53.855Z,100928
2018-02-10T21:27:22.063Z,100923
2018-02-10T21:29:50.347Z,100927
2018-02-10T21:32:18.618Z,100924
2018-02-10T21:34:47.207Z,100924
2018-02-10T21:37:15.503Z,100922
2018-02-10T21:39:45.456Z,100913
2018-02-10T21:42:13.651Z,100916
2018-02-10T21:44:41.905Z,100908
2018-02-10T21:47:10.265Z,100912
2018-02-10T21:49:38.620Z,100915
2018-02-10T21:52:06.835Z,100911
2018-02-10T21:54:35.684Z,100913
2018-02-10T21:57:05.132Z,100912
2018-02-10T21:59:33.323Z,100907
2018-02-10T22:02:01.490Z,100905
2018-02-10T22:04:29.719Z,100905
2018-02-10T22:06:58.028Z,100896
2018-02-10T22:09:26.280Z,100894
2018-02-10T22:11:54.879Z,100880
2018-02-10T22:14:23.099Z,100886
2018-02-10T22:16:51.337Z,100876
2018-02-10T22:19:19.720Z,100880
2018-02-10T22:21:48.052Z,100866
2018-02-10T22:24:16.343Z,100859
2018-02-10T22:26:44.648Z,100848
2018-02-10T22:29:12.882Z,100846
2018-02-10T22:31:41.097Z,100855
2018-02-10T22:34:09.353Z,100853
2018-02-10T22:36:37.510Z,100868
2018-02-10T22:39:05.687Z,100853
2018-02-10T22:41:34.253Z,100861
2018-02-10T22:44:03.247Z,100854
2018-02-10T22:46:31.413Z,100857
2018-02-10T22:49:00.399Z,100853
2018-02-10T22:51:29.420Z,100835
2018-02-10T22:53:57.695Z,100833
2018-02-10T22:56:25.930Z,100839
2018-02-10T22:58:54.172Z,100837
2018-02-10T23:01:22.535Z,100822
2018-02-10T23:03:50.804Z,100820
2018-02-10T23:06:19.104Z,100819
2018-02-10T23:08:47.831Z,100808
2018-02-10T23:11:17.180Z,100813
2018-02-10T23:13:45.543Z,100809
2018-02-10T23:16:13.924Z,100809
2018-02-10T23:18:42.446Z,100802
2018-02-10T23:21:10.659Z,100798
2018-02-10T23:23:39.475Z,100796
2018-02-10T23:26:08.057Z,100788
2018-02-10T23:28:36.285Z,100785
2018-02-10T23:31:05.344Z,100775
2018-02-10T23:33:33.899Z,100763
2018-02-10T23:36:02.886Z,100750
2018-02-10T23:38:31.790Z,100745
2018-02-10T23:41:01.354Z,100737
2018-02-10T23:43:30.275Z,100733
2018-02-10T23:45:58.539Z,100726
2018-02-10T23:48:26.995Z,100726
2018-02-10T23:50:56.842Z,100722
2018-02-10T23:53:25.155Z,100712
2018-02-10T23:55:53.394Z,100707
2018-02-10T23:58:21.546Z,100696
